sensor_id;sensor_type;location;lat;lon;timestamp;pressure;altitude;pressure_sealevel;temperature;humidity
9855;BME280;4966;48.112;9.282;2023-05-25T00:00:39;94918.16;;;12.40;50.07
9855;BME280;4966;48.112;9.282;2023-05-25T00:03:04;94927.47;;;11.77;50.71
9855;BME280;4966;48.112;9.282;2023-05-25T00:05:30;94926.03;;;12.17;50.59
9855;BME280;4966;48.112;9.282;2023-05-25T00:07:55;94929.44;;;12.13;50.75
9855;BME280;4966;48.112;9.282;2023-05-25T00:10:21;94923.25;;;11.80;51.03
9855;BME280;4966;48.112;9.282;2023-05-25T00:12:46;94924.91;;;12.18;50.22
9855;BME280;4966;48.112;9.282;2023-05-25T00:15:12;94921.38;;;11.93;51.02
9855;BME280;4966;48.112;9.282;2023-05-25T00:17:37;94923.31;;;12.29;49.96
9855;BME280;4966;48.112;9.282;2023-05-25T00:20:03;94928.38;;;11.81;51.03
9855;BME280;4966;48.112;9.282;2023-05-25T00:22:35;94919.69;;;12.12;50.67
9855;BME280;4966;48.112;9.282;2023-05-25T00:25:04;94919.91;;;11.95;50.89
9855;BME280;4966;48.112;9.282;2023-05-25T00:27:30;94920.31;;;11.85;50.96
9855;BME280;4966;48.112;9.282;2023-05-25T00:29:56;94916.69;;;11.81;51.38
9855;BME280;4966;48.112;9.282;2023-05-25T00:32:21;94917.41;;;12.15;50.81
9855;BME280;4966;48.112;9.282;2023-05-25T00:34:46;94916.16;;;12.24;50.22
9855;BME280;4966;48.112;9.282;2023-05-25T00:37:12;94913.72;;;12.47;50.04
9855;BME280;4966;48.112;9.282;2023-05-25T00:39:37;94919.69;;;12.12;50.45
9855;BME280;4966;48.112;9.282;2023-05-25T00:42:04;94913.53;;;12.16;50.31
9855;BME280;4966;48.112;9.282;2023-05-25T00:44:31;94918.72;;;12.33;50.00
9855;BME280;4966;48.112;9.282;2023-05-25T00:46:57;94911.03;;;12.23;49.95
9855;BME280;4966;48.112;9.282;2023-05-25T00:49:22;94902.63;;;12.16;49.98
9855;BME280;4966;48.112;9.282;2023-05-25T00:51:48;94912.50;;;12.20;49.89
9855;BME280;4966;48.112;9.282;2023-05-25T00:54:16;94904.94;;;12.54;49.71
9855;BME280;4966;48.112;9.282;2023-05-25T00:59:19;94905.66;;;12.51;49.26
9855;BME280;4966;48.112;9.282;2023-05-25T01:01:50;94906.72;;;12.22;49.42
9855;BME280;4966;48.112;9.282;2023-05-25T01:04:20;94899.88;;;12.28;50.23
9855;BME280;4966;48.112;9.282;2023-05-25T01:06:47;94901.72;;;11.87;50.24
9855;BME280;4966;48.112;9.282;2023-05-25T01:09:15;94898.66;;;12.01;49.25
9855;BME280;4966;48.112;9.282;2023-05-25T01:11:46;94906.97;;;12.04;49.32
9855;BME280;4966;48.112;9.282;2023-05-25T01:14:17;94906.50;;;12.15;48.82
9855;BME280;4966;48.112;9.282;2023-05-25T01:16:44;94904.00;;;12.22;49.44
9855;BME280;4966;48.112;9.282;2023-05-25T01:19:09;94899.22;;;11.94;48.73
9855;BME280;4966;48.112;9.282;2023-05-25T01:21:43;94901.38;;;12.13;48.22
9855;BME280;4966;48.112;9.282;2023-05-25T01:29:45;94895.00;;;11.72;49.30
9855;BME280;4966;48.112;9.282;2023-05-25T01:32:13;94894.53;;;11.82;49.00
9855;BME280;4966;48.112;9.282;2023-05-25T01:34:40;94888.06;;;11.75;49.13
9855;BME280;4966;48.112;9.282;2023-05-25T01:37:07;94897.84;;;11.76;49.13
9855;BME280;4966;48.112;9.282;2023-05-25T01:39:32;94897.38;;;11.86;49.03
9855;BME280;4966;48.112;9.282;2023-05-25T01:41:57;94908.75;;;12.25;48.55
9855;BME280;4966;48.112;9.282;2023-05-25T01:44:24;94899.41;;;12.26;48.27
9855;BME280;4966;48.112;9.282;2023-05-25T01:46:58;94904.34;;;11.96;49.33
9855;BME280;4966;48.112;9.282;2023-05-25T01:49:41;94906.91;;;11.80;49.69
9855;BME280;4966;48.112;9.282;2023-05-25T01:52:29;94902.94;;;11.77;49.89
9855;BME280;4966;48.112;9.282;2023-05-25T01:55:05;94904.06;;;11.64;50.24
9855;BME280;4966;48.112;9.282;2023-05-25T01:57:35;94909.19;;;11.78;50.40
9855;BME280;4966;48.112;9.282;2023-05-25T02:00:02;94910.34;;;11.89;50.41
9855;BME280;4966;48.112;9.282;2023-05-25T02:02:30;94915.69;;;12.10;50.10
9855;BME280;4966;48.112;9.282;2023-05-25T02:04:57;94919.00;;;11.91;50.79
9855;BME280;4966;48.112;9.282;2023-05-25T02:07:23;94917.97;;;11.96;51.16
9855;BME280;4966;48.112;9.282;2023-05-25T02:09:49;94908.09;;;12.03;50.86
9855;BME280;4966;48.112;9.282;2023-05-25T02:12:15;94905.75;;;11.56;51.88
9855;BME280;4966;48.112;9.282;2023-05-25T02:14:40;94893.88;;;11.85;51.86
9855;BME280;4966;48.112;9.282;2023-05-25T02:17:05;94895.78;;;11.73;52.03
9855;BME280;4966;48.112;9.282;2023-05-25T02:19:31;94890.78;;;11.75;52.24
9855;BME280;4966;48.112;9.282;2023-05-25T02:21:57;94890.53;;;11.43;53.27
9855;BME280;4966;48.112;9.282;2023-05-25T02:24:23;94901.22;;;11.60;52.95
9855;BME280;4966;48.112;9.282;2023-05-25T02:26:49;94903.63;;;11.86;52.76
9855;BME280;4966;48.112;9.282;2023-05-25T02:29:15;94898.34;;;11.90;52.93
9855;BME280;4966;48.112;9.282;2023-05-25T02:31:40;94898.75;;;11.92;52.00
9855;BME280;4966;48.112;9.282;2023-05-25T02:34:06;94892.78;;;11.28;54.26
9855;BME280;4966;48.112;9.282;2023-05-25T02:36:32;94894.56;;;11.24;54.28
9855;BME280;4966;48.112;9.282;2023-05-25T02:38:58;94892.53;;;11.21;54.72
9855;BME280;4966;48.112;9.282;2023-05-25T02:41:24;94895.31;;;11.13;54.93
9855;BME280;4966;48.112;9.282;2023-05-25T02:43:50;94895.84;;;11.39;54.37
9855;BME280;4966;48.112;9.282;2023-05-25T02:46:16;94899.63;;;11.47;54.51
9855;BME280;4966;48.112;9.282;2023-05-25T02:48:41;94890.59;;;11.22;55.36
9855;BME280;4966;48.112;9.282;2023-05-25T02:51:07;94899.19;;;11.57;54.39
9855;BME280;4966;48.112;9.282;2023-05-25T02:53:32;94886.19;;;10.96;55.86
9855;BME280;4966;48.112;9.282;2023-05-25T02:55:58;94891.78;;;11.45;54.95
9855;BME280;4966;48.112;9.282;2023-05-25T02:58:24;94895.25;;;11.21;55.71
9855;BME280;4966;48.112;9.282;2023-05-25T03:00:50;94890.91;;;11.20;55.95
9855;BME280;4966;48.112;9.282;2023-05-25T03:03:15;94891.75;;;11.21;56.10
9855;BME280;4966;48.112;9.282;2023-05-25T03:05:40;94884.41;;;11.00;56.49
9855;BME280;4966;48.112;9.282;2023-05-25T03:08:06;94892.25;;;11.02;56.83
9855;BME280;4966;48.112;9.282;2023-05-25T03:10:31;94894.44;;;11.09;56.62
9855;BME280;4966;48.112;9.282;2023-05-25T03:12:56;94895.44;;;11.04;56.33
9855;BME280;4966;48.112;9.282;2023-05-25T03:15:22;94906.75;;;11.39;56.08
9855;BME280;4966;48.112;9.282;2023-05-25T03:17:48;94904.78;;;11.27;56.33
9855;BME280;4966;48.112;9.282;2023-05-25T03:20:13;94902.00;;;11.03;56.96
9855;BME280;4966;48.112;9.282;2023-05-25T03:22:41;94896.69;;;11.06;57.40
9855;BME280;4966;48.112;9.282;2023-05-25T03:25:07;94896.75;;;11.31;56.75
9855;BME280;4966;48.112;9.282;2023-05-25T03:27:33;94894.63;;;11.03;57.93
9855;BME280;4966;48.112;9.282;2023-05-25T03:29:58;94901.75;;;10.96;58.14
9855;BME280;4966;48.112;9.282;2023-05-25T03:32:23;94889.38;;;10.98;58.13
9855;BME280;4966;48.112;9.282;2023-05-25T03:34:49;94898.28;;;10.86;58.26
9855;BME280;4966;48.112;9.282;2023-05-25T03:37:14;94896.03;;;11.22;57.43
9855;BME280;4966;48.112;9.282;2023-05-25T03:39:39;94892.72;;;11.04;58.33
9855;BME280;4966;48.112;9.282;2023-05-25T03:42:05;94894.31;;;11.17;58.15
9855;BME280;4966;48.112;9.282;2023-05-25T03:44:30;94881.13;;;11.07;58.14
9855;BME280;4966;48.112;9.282;2023-05-25T03:46:56;94879.84;;;10.92;58.89
9855;BME280;4966;48.112;9.282;2023-05-25T03:49:21;94889.22;;;10.82;59.27
9855;BME280;4966;48.112;9.282;2023-05-25T03:51:46;94883.03;;;10.94;59.13
9855;BME280;4966;48.112;9.282;2023-05-25T03:54:13;94893.31;;;10.89;59.30
9855;BME280;4966;48.112;9.282;2023-05-25T03:56:38;94891.63;;;10.96;59.55
9855;BME280;4966;48.112;9.282;2023-05-25T03:59:03;94886.19;;;10.96;59.65
9855;BME280;4966;48.112;9.282;2023-05-25T04:01:29;94900.44;;;10.60;60.37
9855;BME280;4966;48.112;9.282;2023-05-25T04:03:57;94907.53;;;10.94;59.89
9855;BME280;4966;48.112;9.282;2023-05-25T04:06:22;94902.66;;;11.00;59.73
9855;BME280;4966;48.112;9.282;2023-05-25T04:08:50;94907.09;;;10.71;60.74
9855;BME280;4966;48.112;9.282;2023-05-25T04:11:17;94907.50;;;10.61;61.33
9855;BME280;4966;48.112;9.282;2023-05-25T04:13:42;94904.09;;;10.64;61.16
9855;BME280;4966;48.112;9.282;2023-05-25T04:16:08;94910.28;;;10.73;61.08
9855;BME280;4966;48.112;9.282;2023-05-25T04:18:34;94914.66;;;10.99;60.90
9855;BME280;4966;48.112;9.282;2023-05-25T04:20:59;94908.66;;;10.72;61.30
9855;BME280;4966;48.112;9.282;2023-05-25T04:23:25;94910.06;;;10.78;61.55
9855;BME280;4966;48.112;9.282;2023-05-25T04:25:50;94914.66;;;11.32;60.19
9855;BME280;4966;48.112;9.282;2023-05-25T04:28:16;94913.56;;;10.79;61.64
9855;BME280;4966;48.112;9.282;2023-05-25T04:30:42;94918.81;;;11.17;60.83
9855;BME280;4966;48.112;9.282;2023-05-25T04:33:09;94916.56;;;11.19;61.22
9855;BME280;4966;48.112;9.282;2023-05-25T04:35:35;94925.81;;;11.52;59.77
9855;BME280;4966;48.112;9.282;2023-05-25T04:38:01;94928.19;;;11.41;60.46
9855;BME280;4966;48.112;9.282;2023-05-25T04:40:27;94924.78;;;11.32;60.71
9855;BME280;4966;48.112;9.282;2023-05-25T04:42:52;94927.88;;;11.42;60.60
9855;BME280;4966;48.112;9.282;2023-05-25T04:45:18;94912.31;;;10.76;62.38
9855;BME280;4966;48.112;9.282;2023-05-25T04:47:45;94919.59;;;11.51;60.81
9855;BME280;4966;48.112;9.282;2023-05-25T04:50:11;94924.91;;;11.35;61.15
9855;BME280;4966;48.112;9.282;2023-05-25T04:52:37;94935.56;;;11.86;59.83
9855;BME280;4966;48.112;9.282;2023-05-25T04:55:02;94936.88;;;11.80;59.87
9855;BME280;4966;48.112;9.282;2023-05-25T04:57:28;94938.53;;;11.93;59.58
9855;BME280;4966;48.112;9.282;2023-05-25T04:59:55;94936.72;;;12.09;59.21
9855;BME280;4966;48.112;9.282;2023-05-25T05:02:20;94939.31;;;12.06;59.53
9855;BME280;4966;48.112;9.282;2023-05-25T05:04:46;94935.53;;;11.74;60.76
9855;BME280;4966;48.112;9.282;2023-05-25T05:07:11;94945.38;;;11.66;60.87
9855;BME280;4966;48.112;9.282;2023-05-25T05:09:36;94945.06;;;11.80;60.59
9855;BME280;4966;48.112;9.282;2023-05-25T05:12:02;94928.94;;;11.75;61.37
9855;BME280;4966;48.112;9.282;2023-05-25T05:14:28;94930.97;;;11.78;61.97
9855;BME280;4966;48.112;9.282;2023-05-25T05:16:53;94938.97;;;11.83;61.68
9855;BME280;4966;48.112;9.282;2023-05-25T05:19:18;94942.03;;;12.18;61.11
9855;BME280;4966;48.112;9.282;2023-05-25T05:21:44;94938.19;;;11.95;61.52
9855;BME280;4966;48.112;9.282;2023-05-25T05:24:10;94933.66;;;12.36;60.86
9855;BME280;4966;48.112;9.282;2023-05-25T05:26:35;94931.38;;;12.13;61.25
9855;BME280;4966;48.112;9.282;2023-05-25T05:29:02;94937.47;;;12.47;60.69
9855;BME280;4966;48.112;9.282;2023-05-25T05:31:28;94944.13;;;12.21;61.56
9855;BME280;4966;48.112;9.282;2023-05-25T05:33:53;94949.66;;;12.37;61.55
9855;BME280;4966;48.112;9.282;2023-05-25T05:36:19;94944.69;;;12.80;60.69
9855;BME280;4966;48.112;9.282;2023-05-25T05:38:44;94953.09;;;12.87;60.57
9855;BME280;4966;48.112;9.282;2023-05-25T05:41:11;94955.28;;;13.09;60.90
9855;BME280;4966;48.112;9.282;2023-05-25T05:43:40;94963.09;;;12.83;61.60
9855;BME280;4966;48.112;9.282;2023-05-25T05:46:09;94957.34;;;12.72;62.68
9855;BME280;4966;48.112;9.282;2023-05-25T05:48:36;94966.91;;;12.66;62.46
9855;BME280;4966;48.112;9.282;2023-05-25T05:51:05;94971.53;;;12.77;62.62
9855;BME280;4966;48.112;9.282;2023-05-25T05:53:31;94972.09;;;12.83;63.59
9855;BME280;4966;48.112;9.282;2023-05-25T05:55:57;94962.38;;;12.33;64.88
9855;BME280;4966;48.112;9.282;2023-05-25T05:58:27;94969.25;;;12.80;63.21
9855;BME280;4966;48.112;9.282;2023-05-25T06:00:53;94959.28;;;12.59;63.85
9855;BME280;4966;48.112;9.282;2023-05-25T06:03:20;94968.28;;;12.60;64.09
9855;BME280;4966;48.112;9.282;2023-05-25T06:05:46;94963.19;;;12.98;64.10
9855;BME280;4966;48.112;9.282;2023-05-25T06:08:11;94963.25;;;13.43;62.16
9855;BME280;4966;48.112;9.282;2023-05-25T06:10:37;94965.59;;;13.56;61.72
9855;BME280;4966;48.112;9.282;2023-05-25T06:13:03;94977.91;;;13.22;63.12
9855;BME280;4966;48.112;9.282;2023-05-25T06:15:28;94963.97;;;12.99;63.58
9855;BME280;4966;48.112;9.282;2023-05-25T06:17:54;94970.81;;;13.33;62.90
9855;BME280;4966;48.112;9.282;2023-05-25T06:20:19;94965.88;;;13.67;62.15
9855;BME280;4966;48.112;9.282;2023-05-25T06:22:44;94967.91;;;13.86;61.75
9855;BME280;4966;48.112;9.282;2023-05-25T06:25:10;94967.03;;;13.66;62.54
9855;BME280;4966;48.112;9.282;2023-05-25T06:27:36;94972.81;;;13.65;63.66
9855;BME280;4966;48.112;9.282;2023-05-25T06:30:02;94971.72;;;13.81;62.39
9855;BME280;4966;48.112;9.282;2023-05-25T06:32:27;94972.75;;;13.33;63.97
9855;BME280;4966;48.112;9.282;2023-05-25T06:34:53;94974.81;;;12.95;65.92
9855;BME280;4966;48.112;9.282;2023-05-25T06:37:18;94984.63;;;13.25;65.42
9855;BME280;4966;48.112;9.282;2023-05-25T06:39:43;94983.56;;;13.57;64.82
9855;BME280;4966;48.112;9.282;2023-05-25T06:42:09;94989.41;;;13.28;66.16
9855;BME280;4966;48.112;9.282;2023-05-25T06:44:35;94980.13;;;13.45;66.03
9855;BME280;4966;48.112;9.282;2023-05-25T06:47:01;94999.75;;;13.63;65.87
9855;BME280;4966;48.112;9.282;2023-05-25T06:49:27;94990.78;;;13.50;66.99
9855;BME280;4966;48.112;9.282;2023-05-25T06:51:52;94988.06;;;13.94;66.17
9855;BME280;4966;48.112;9.282;2023-05-25T06:54:18;95002.94;;;13.36;68.50
9855;BME280;4966;48.112;9.282;2023-05-25T06:56:44;94997.56;;;13.40;68.34
9855;BME280;4966;48.112;9.282;2023-05-25T06:59:09;95003.59;;;13.46;68.48
9855;BME280;4966;48.112;9.282;2023-05-25T07:01:35;95001.44;;;13.67;68.04
9855;BME280;4966;48.112;9.282;2023-05-25T07:04:00;94997.50;;;13.96;67.64
9855;BME280;4966;48.112;9.282;2023-05-25T07:06:26;94999.25;;;14.04;67.51
9855;BME280;4966;48.112;9.282;2023-05-25T07:08:51;95002.25;;;14.31;65.83
9855;BME280;4966;48.112;9.282;2023-05-25T07:11:16;95004.13;;;14.11;67.38
9855;BME280;4966;48.112;9.282;2023-05-25T07:13:44;94999.78;;;14.74;64.80
9855;BME280;4966;48.112;9.282;2023-05-25T07:16:10;94998.03;;;14.50;65.28
9855;BME280;4966;48.112;9.282;2023-05-25T07:18:38;95003.47;;;15.17;63.29
9855;BME280;4966;48.112;9.282;2023-05-25T07:21:04;95008.88;;;14.62;65.10
9855;BME280;4966;48.112;9.282;2023-05-25T07:23:29;95002.34;;;14.82;64.79
9855;BME280;4966;48.112;9.282;2023-05-25T07:25:54;95005.25;;;14.58;64.78
9855;BME280;4966;48.112;9.282;2023-05-25T07:28:19;95002.34;;;14.82;65.32
9855;BME280;4966;48.112;9.282;2023-05-25T07:30:45;95004.47;;;15.28;63.75
9855;BME280;4966;48.112;9.282;2023-05-25T07:33:10;95010.91;;;15.36;63.17
9855;BME280;4966;48.112;9.282;2023-05-25T07:35:35;95011.72;;;14.65;65.31
9855;BME280;4966;48.112;9.282;2023-05-25T07:38:02;95013.06;;;14.56;65.82
9855;BME280;4966;48.112;9.282;2023-05-25T07:40:31;95015.00;;;14.55;66.08
9855;BME280;4966;48.112;9.282;2023-05-25T07:42:56;95016.47;;;14.05;66.89
9855;BME280;4966;48.112;9.282;2023-05-25T07:45:22;95030.06;;;15.16;65.17
9855;BME280;4966;48.112;9.282;2023-05-25T07:47:47;95027.41;;;14.05;67.96
9855;BME280;4966;48.112;9.282;2023-05-25T07:50:14;95035.53;;;14.17;67.63
9855;BME280;4966;48.112;9.282;2023-05-25T07:52:39;95026.44;;;14.77;66.83
9855;BME280;4966;48.112;9.282;2023-05-25T07:55:05;95035.41;;;15.09;65.29
9855;BME280;4966;48.112;9.282;2023-05-25T07:57:31;95037.72;;;14.56;66.60
9855;BME280;4966;48.112;9.282;2023-05-25T07:59:56;95032.81;;;14.65;65.73
9855;BME280;4966;48.112;9.282;2023-05-25T08:02:22;95039.88;;;14.50;67.14
9855;BME280;4966;48.112;9.282;2023-05-25T08:04:47;95044.44;;;14.46;66.70
9855;BME280;4966;48.112;9.282;2023-05-25T08:07:12;95031.97;;;14.96;66.01
9855;BME280;4966;48.112;9.282;2023-05-25T08:09:37;95030.75;;;14.46;67.10
9855;BME280;4966;48.112;9.282;2023-05-25T08:12:03;95026.81;;;14.28;67.76
9855;BME280;4966;48.112;9.282;2023-05-25T08:14:28;95040.00;;;14.54;67.62
9855;BME280;4966;48.112;9.282;2023-05-25T08:16:54;95037.81;;;15.30;65.48
9855;BME280;4966;48.112;9.282;2023-05-25T08:19:19;95045.72;;;15.16;66.30
9855;BME280;4966;48.112;9.282;2023-05-25T08:21:45;95040.78;;;15.80;63.23
9855;BME280;4966;48.112;9.282;2023-05-25T08:24:10;95040.44;;;15.07;65.02
9855;BME280;4966;48.112;9.282;2023-05-25T08:26:35;95042.13;;;15.31;64.24
9855;BME280;4966;48.112;9.282;2023-05-25T08:29:02;95035.72;;;15.62;63.87
9855;BME280;4966;48.112;9.282;2023-05-25T08:31:32;95027.88;;;15.06;64.31
9855;BME280;4966;48.112;9.282;2023-05-25T08:33:57;95038.03;;;15.05;64.50
9855;BME280;4966;48.112;9.282;2023-05-25T08:36:23;95041.00;;;14.17;67.21
9855;BME280;4966;48.112;9.282;2023-05-25T08:38:49;95036.53;;;14.25;67.81
9855;BME280;4966;48.112;9.282;2023-05-25T08:41:15;95047.56;;;14.60;67.29
9855;BME280;4966;48.112;9.282;2023-05-25T08:43:40;95052.41;;;14.83;66.56
9855;BME280;4966;48.112;9.282;2023-05-25T08:46:07;95056.47;;;15.44;64.20
9855;BME280;4966;48.112;9.282;2023-05-25T08:48:34;95059.22;;;15.24;63.94
9855;BME280;4966;48.112;9.282;2023-05-25T08:51:04;95068.22;;;15.25;64.62
9855;BME280;4966;48.112;9.282;2023-05-25T08:53:38;95064.78;;;15.28;64.65
9855;BME280;4966;48.112;9.282;2023-05-25T08:56:16;95070.41;;;15.35;63.66
9855;BME280;4966;48.112;9.282;2023-05-25T08:58:53;95066.16;;;16.15;61.13
9855;BME280;4966;48.112;9.282;2023-05-25T09:01:24;95070.34;;;14.64;65.04
9855;BME280;4966;48.112;9.282;2023-05-25T09:03:52;95068.00;;;15.14;64.17
9855;BME280;4966;48.112;9.282;2023-05-25T09:06:19;95076.22;;;15.69;62.75
9855;BME280;4966;48.112;9.282;2023-05-25T09:08:45;95069.84;;;16.04;61.91
9855;BME280;4966;48.112;9.282;2023-05-25T09:11:11;95085.44;;;16.19;60.40
9855;BME280;4966;48.112;9.282;2023-05-25T09:13:36;95076.81;;;16.21;61.00
9855;BME280;4966;48.112;9.282;2023-05-25T09:16:02;95075.63;;;16.87;59.55
9855;BME280;4966;48.112;9.282;2023-05-25T09:18:28;95082.41;;;16.70;57.63
9855;BME280;4966;48.112;9.282;2023-05-25T09:20:53;95086.59;;;16.84;57.46
9855;BME280;4966;48.112;9.282;2023-05-25T09:23:19;95101.50;;;17.09;57.86
9855;BME280;4966;48.112;9.282;2023-05-25T09:25:45;95103.50;;;17.39;55.89
9855;BME280;4966;48.112;9.282;2023-05-25T09:28:11;95107.19;;;16.74;57.75
9855;BME280;4966;48.112;9.282;2023-05-25T09:30:37;95104.13;;;17.02;57.66
9855;BME280;4966;48.112;9.282;2023-05-25T09:33:11;95105.72;;;17.30;57.14
9855;BME280;4966;48.112;9.282;2023-05-25T09:35:37;95115.63;;;16.85;58.42
9855;BME280;4966;48.112;9.282;2023-05-25T09:38:03;95122.47;;;16.29;59.95
9855;BME280;4966;48.112;9.282;2023-05-25T09:40:30;95121.72;;;16.74;58.07
9855;BME280;4966;48.112;9.282;2023-05-25T09:42:57;95114.53;;;16.24;59.38
9855;BME280;4966;48.112;9.282;2023-05-25T09:45:22;95123.38;;;15.94;60.30
9855;BME280;4966;48.112;9.282;2023-05-25T09:47:48;95129.00;;;16.86;58.45
9855;BME280;4966;48.112;9.282;2023-05-25T09:50:13;95121.75;;;16.32;59.46
9855;BME280;4966;48.112;9.282;2023-05-25T09:52:40;95117.81;;;16.52;58.51
9855;BME280;4966;48.112;9.282;2023-05-25T09:55:07;95109.09;;;16.70;57.88
9855;BME280;4966;48.112;9.282;2023-05-25T09:57:34;95110.19;;;16.65;58.00
9855;BME280;4966;48.112;9.282;2023-05-25T09:59:59;95127.75;;;16.18;59.26
9855;BME280;4966;48.112;9.282;2023-05-25T10:02:25;95122.00;;;16.46;59.77
9855;BME280;4966;48.112;9.282;2023-05-25T10:04:50;95120.78;;;16.86;57.57
9855;BME280;4966;48.112;9.282;2023-05-25T10:07:16;95121.16;;;17.38;56.77
9855;BME280;4966;48.112;9.282;2023-05-25T10:09:44;95123.41;;;18.16;54.20
9855;BME280;4966;48.112;9.282;2023-05-25T10:12:10;95130.78;;;18.45;54.19
9855;BME280;4966;48.112;9.282;2023-05-25T10:14:37;95130.31;;;19.18;51.66
9855;BME280;4966;48.112;9.282;2023-05-25T10:17:04;95133.22;;;18.88;53.03
9855;BME280;4966;48.112;9.282;2023-05-25T10:19:39;95132.91;;;18.59;51.46
9855;BME280;4966;48.112;9.282;2023-05-25T10:22:17;95141.31;;;17.72;54.23
9855;BME280;4966;48.112;9.282;2023-05-25T10:25:15;95140.97;;;18.07;53.57
9855;BME280;4966;48.112;9.282;2023-05-25T10:27:47;95145.66;;;18.37;53.63
9855;BME280;4966;48.112;9.282;2023-05-25T10:30:14;95137.88;;;18.80;52.50
9855;BME280;4966;48.112;9.282;2023-05-25T10:32:41;95145.38;;;19.28;51.15
9855;BME280;4966;48.112;9.282;2023-05-25T10:35:08;95159.63;;;18.55;53.56
9855;BME280;4966;48.112;9.282;2023-05-25T10:37:34;95142.25;;;18.88;52.69
9855;BME280;4966;48.112;9.282;2023-05-25T10:40:00;95149.41;;;18.93;52.04
9855;BME280;4966;48.112;9.282;2023-05-25T10:42:26;95156.28;;;19.13;51.14
9855;BME280;4966;48.112;9.282;2023-05-25T10:44:55;95154.53;;;19.43;49.56
9855;BME280;4966;48.112;9.282;2023-05-25T10:47:21;95141.00;;;19.79;49.97
9855;BME280;4966;48.112;9.282;2023-05-25T10:49:53;95145.09;;;20.13;49.94
9855;BME280;4966;48.112;9.282;2023-05-25T10:52:19;95143.47;;;18.91;49.73
9855;BME280;4966;48.112;9.282;2023-05-25T10:54:48;95151.00;;;18.98;51.06
9855;BME280;4966;48.112;9.282;2023-05-25T10:57:17;95146.16;;;18.46;52.38
9855;BME280;4966;48.112;9.282;2023-05-25T10:59:50;95159.00;;;18.32;53.00
9855;BME280;4966;48.112;9.282;2023-05-25T11:02:18;95151.91;;;18.00;53.32
9855;BME280;4966;48.112;9.282;2023-05-25T11:04:47;95158.41;;;17.58;54.56
9855;BME280;4966;48.112;9.282;2023-05-25T11:07:14;95156.19;;;17.68;54.46
9855;BME280;4966;48.112;9.282;2023-05-25T11:09:42;95164.47;;;17.98;55.30
9855;BME280;4966;48.112;9.282;2023-05-25T11:12:18;95154.44;;;18.84;52.47
9855;BME280;4966;48.112;9.282;2023-05-25T11:15:07;95152.06;;;18.82;51.65
9855;BME280;4966;48.112;9.282;2023-05-25T11:18:03;95157.13;;;19.73;50.69
9855;BME280;4966;48.112;9.282;2023-05-25T11:20:28;95144.56;;;21.24;46.67
9855;BME280;4966;48.112;9.282;2023-05-25T11:22:55;95154.03;;;21.23;47.08
9855;BME280;4966;48.112;9.282;2023-05-25T11:28:03;95157.19;;;20.78;46.32
9855;BME280;4966;48.112;9.282;2023-05-25T11:30:29;95161.50;;;20.69;47.25
9855;BME280;4966;48.112;9.282;2023-05-25T11:32:56;95153.59;;;19.76;49.61
9855;BME280;4966;48.112;9.282;2023-05-25T11:35:24;95149.16;;;20.45;47.09
9855;BME280;4966;48.112;9.282;2023-05-25T11:37:50;95139.00;;;20.74;46.84
9855;BME280;4966;48.112;9.282;2023-05-25T11:40:21;95147.34;;;21.31;45.61
9855;BME280;4966;48.112;9.282;2023-05-25T11:42:47;95142.47;;;22.07;44.83
9855;BME280;4966;48.112;9.282;2023-05-25T11:45:13;95146.16;;;21.57;45.00
9855;BME280;4966;48.112;9.282;2023-05-25T11:47:40;95144.94;;;21.73;45.48
9855;BME280;4966;48.112;9.282;2023-05-25T11:50:05;95156.34;;;22.99;44.22
9855;BME280;4966;48.112;9.282;2023-05-25T11:52:31;95139.16;;;23.18;42.22
9855;BME280;4966;48.112;9.282;2023-05-25T11:54:57;95142.56;;;23.36;41.92
9855;BME280;4966;48.112;9.282;2023-05-25T11:57:23;95147.88;;;24.72;38.00
9855;BME280;4966;48.112;9.282;2023-05-25T11:59:56;95147.38;;;26.25;37.75
9855;BME280;4966;48.112;9.282;2023-05-25T12:02:24;95144.72;;;26.78;35.63
9855;BME280;4966;48.112;9.282;2023-05-25T12:04:57;95141.19;;;26.94;34.98
9855;BME280;4966;48.112;9.282;2023-05-25T12:07:24;95138.50;;;27.07;35.25
9855;BME280;4966;48.112;9.282;2023-05-25T12:09:50;95136.44;;;26.75;34.15
9855;BME280;4966;48.112;9.282;2023-05-25T12:12:16;95134.66;;;27.17;35.63
9855;BME280;4966;48.112;9.282;2023-05-25T12:14:49;95127.69;;;27.91;34.29
9855;BME280;4966;48.112;9.282;2023-05-25T12:17:16;95130.25;;;27.36;34.21
9855;BME280;4966;48.112;9.282;2023-05-25T12:19:42;95126.19;;;27.04;34.11
9855;BME280;4966;48.112;9.282;2023-05-25T12:22:09;95140.72;;;26.19;34.92
9855;BME280;4966;48.112;9.282;2023-05-25T12:24:34;95133.25;;;26.52;34.61
9855;BME280;4966;48.112;9.282;2023-05-25T12:27:00;95123.50;;;28.41;32.68
9855;BME280;4966;48.112;9.282;2023-05-25T12:29:27;95124.94;;;28.62;30.26
9855;BME280;4966;48.112;9.282;2023-05-25T12:32:00;95121.91;;;27.65;32.81
9855;BME280;4966;48.112;9.282;2023-05-25T12:34:26;95132.16;;;28.47;32.43
9855;BME280;4966;48.112;9.282;2023-05-25T12:36:54;95128.47;;;29.90;29.72
9855;BME280;4966;48.112;9.282;2023-05-25T12:41:56;95126.19;;;30.55;29.94
9855;BME280;4966;48.112;9.282;2023-05-25T12:46:51;95119.06;;;30.63;29.44
9855;BME280;4966;48.112;9.282;2023-05-25T12:49:31;95123.09;;;29.96;29.43
9855;BME280;4966;48.112;9.282;2023-05-25T12:51:58;95129.88;;;29.73;29.63
9855;BME280;4966;48.112;9.282;2023-05-25T12:54:45;95120.19;;;28.17;30.65
9855;BME280;4966;48.112;9.282;2023-05-25T12:57:14;95121.19;;;29.20;29.87
9855;BME280;4966;48.112;9.282;2023-05-25T12:59:44;95124.19;;;28.45;31.61
9855;BME280;4966;48.112;9.282;2023-05-25T13:02:11;95125.88;;;29.96;31.16
9855;BME280;4966;48.112;9.282;2023-05-25T13:04:38;95114.84;;;30.59;29.74
9855;BME280;4966;48.112;9.282;2023-05-25T13:07:05;95126.94;;;28.61;31.46
9855;BME280;4966;48.112;9.282;2023-05-25T13:09:32;95135.47;;;25.58;35.46
9855;BME280;4966;48.112;9.282;2023-05-25T13:11:58;95133.78;;;26.47;35.71
9855;BME280;4966;48.112;9.282;2023-05-25T13:14:26;95136.84;;;25.93;35.42
9855;BME280;4966;48.112;9.282;2023-05-25T13:16:52;95140.59;;;25.36;36.64
9855;BME280;4966;48.112;9.282;2023-05-25T13:19:20;95135.34;;;25.14;38.13
9855;BME280;4966;48.112;9.282;2023-05-25T13:21:46;95134.31;;;24.47;39.18
9855;BME280;4966;48.112;9.282;2023-05-25T13:24:13;95135.44;;;24.18;38.37
9855;BME280;4966;48.112;9.282;2023-05-25T13:26:39;95129.44;;;24.20;39.95
9855;BME280;4966;48.112;9.282;2023-05-25T13:29:04;95132.97;;;25.13;39.11
9855;BME280;4966;48.112;9.282;2023-05-25T13:31:30;95127.63;;;25.73;37.86
9855;BME280;4966;48.112;9.282;2023-05-25T13:33:58;95125.16;;;25.31;37.67
9855;BME280;4966;48.112;9.282;2023-05-25T13:36:24;95128.25;;;25.10;38.78